Time;durP1;ratioP1;P1;durP2;ratioP2;P2;SDS_P1;SDS_P2;PMS_P1;PMS_P2;Temp;Humidity;BMP_temperature;BMP_pressure;BME280_temperature;BME280_humidity;BME280_pressure;Samples;Min_cycle;Max_cycle;Signal;HPM_P1;HPM_P2
2023/08/21 00:00:41;;;;;;;908.00;820.42;;;27.40;99.90;;;;;;5090787;28;20021;-70
2023/08/21 00:03:08;;;;;;;910.22;822.50;;;27.40;99.90;;;;;;5075643;28;20036;-69
2023/08/21 00:05:34;;;;;;;770.17;696.10;;;27.40;99.90;;;;;;5074439;28;20412;-69
2023/08/21 00:08:01;;;;;;;966.78;872.58;;;27.40;99.90;;;;;;5075760;28;20022;-69
2023/08/21 00:10:30;;;;;;;747.80;676.47;;;27.40;99.90;;;;;;5075623;28;20020;-69
2023/08/21 00:12:57;;;;;;;842.50;761.40;;;27.40;99.90;;;;;;5075618;28;20032;-67
2023/08/21 00:15:24;;;;;;;981.92;886.20;;;27.40;99.90;;;;;;5076135;28;20481;-70
2023/08/21 00:17:50;;;;;;;737.58;665.97;;;27.40;99.90;;;;;;5075628;28;20040;-68
2023/08/21 00:20:17;;;;;;;974.58;879.72;;;27.40;99.90;;;;;;5075664;28;20537;-69
2023/08/21 00:22:43;;;;;;;667.10;601.67;;;27.40;99.90;;;;;;5075481;28;20024;-69
2023/08/21 00:25:10;;;;;;;601.45;542.53;;;27.50;99.90;;;;;;5075353;28;20028;-69
2023/08/21 00:27:36;;;;;;;731.72;660.00;;;27.50;99.90;;;;;;5075594;28;20017;-69
2023/08/21 00:30:03;;;;;;;592.53;533.33;;;27.60;99.90;;;;;;5075373;28;20020;-69
2023/08/21 00:32:30;;;;;;;595.38;535.75;;;27.60;99.90;;;;;;5075251;28;20016;-69
2023/08/21 00:34:56;;;;;;;558.35;501.05;;;27.70;99.90;;;;;;5075618;28;20032;-69
2023/08/21 00:37:23;;;;;;;561.88;505.90;;;27.70;99.90;;;;;;5075319;28;20027;-69
2023/08/21 00:39:50;;;;;;;483.02;433.23;;;27.70;99.90;;;;;;5075311;28;20032;-69
2023/08/21 00:42:16;;;;;;;685.85;619.55;;;27.80;99.90;;;;;;5074899;28;20039;-68
2023/08/21 00:44:43;;;;;;;894.38;808.00;;;27.80;99.90;;;;;;5075222;28;20048;-68
2023/08/21 00:47:09;;;;;;;887.63;801.72;;;27.80;99.90;;;;;;5075159;28;20023;-70
2023/08/21 00:49:36;;;;;;;986.00;889.33;;;27.90;99.90;;;;;;5074961;28;20023;-69
2023/08/21 00:52:03;;;;;;;971.75;876.95;;;27.90;99.90;;;;;;5074971;28;20526;-68
2023/08/21 00:54:31;;;;;;;760.95;686.65;;;28.00;99.90;;;;;;5074840;28;20020;-67
2023/08/21 00:56:57;;;;;;;941.65;850.17;;;28.00;99.90;;;;;;5074535;28;20028;-69
2023/08/21 00:59:24;;;;;;;979.53;883.85;;;28.00;99.90;;;;;;5074627;28;20044;-70
2023/08/21 01:01:51;;;;;;;1051.00;948.28;;;28.10;99.90;;;;;;5074520;28;20488;-71
2023/08/21 01:04:18;;;;;;;1159.10;999.90;;;28.20;99.90;;;;;;5074495;28;20024;-70
2023/08/21 01:06:44;;;;;;;1123.47;999.90;;;28.20;99.90;;;;;;5074710;28;20016;-69
2023/08/21 01:09:21;;;;;;;676.22;610.67;;;28.30;99.90;;;;;;5074531;28;20107;-69
2023/08/21 01:12:11;;;;;;;1115.18;998.30;;;28.30;99.90;;;;;;5074550;28;20028;-68
2023/08/21 01:14:49;;;;;;;1156.18;999.90;;;28.40;99.90;;;;;;5074214;28;20418;-69
2023/08/21 01:17:18;;;;;;;967.08;873.50;;;28.50;99.90;;;;;;5074286;28;20040;-70
2023/08/21 01:19:48;;;;;;;937.00;845.40;;;28.60;99.90;;;;;;5074389;28;20078;-69
2023/08/21 01:22:14;;;;;;;841.10;759.38;;;28.70;99.90;;;;;;5073981;28;20027;-69
2023/08/21 01:24:41;;;;;;;906.97;818.97;;;28.70;99.90;;;;;;5074389;28;20016;-70
2023/08/21 01:27:08;;;;;;;798.53;721.63;;;28.70;99.90;;;;;;5079266;28;20028;-71
2023/08/21 01:29:35;;;;;;;772.33;698.70;;;28.80;99.90;;;;;;5094390;28;20066;-71
2023/08/21 01:32:18;;;;;;;844.78;764.28;;;28.80;99.90;;;;;;5094563;28;20031;-71
2023/08/21 01:34:47;;;;;;;810.50;733.05;;;28.90;99.90;;;;;;5094126;28;20030;-71
2023/08/21 01:37:14;;;;;;;864.45;781.47;;;29.00;99.90;;;;;;5094353;28;20024;-71
2023/08/21 01:39:41;;;;;;;761.35;688.63;;;29.00;99.90;;;;;;5094306;28;20020;-70
2023/08/21 01:42:08;;;;;;;656.28;591.83;;;29.10;99.90;;;;;;5093962;28;20066;-70
2023/08/21 01:44:35;;;;;;;683.45;617.55;;;29.10;99.90;;;;;;5094137;28;20027;-70
2023/08/21 01:47:01;;;;;;;545.15;490.70;;;29.20;99.90;;;;;;5093386;28;20378;-71
2023/08/21 01:49:28;;;;;;;544.90;490.48;;;29.20;99.90;;;;;;5088102;28;20530;-70
2023/08/21 01:51:54;;;;;;;530.45;477.05;;;29.20;99.90;;;;;;5094370;28;20495;-70
2023/08/21 01:54:21;;;;;;;636.20;573.92;;;29.20;99.90;;;;;;5077470;28;20025;-70
2023/08/21 01:56:47;;;;;;;766.17;693.35;;;29.30;99.90;;;;;;5074350;28;20035;-70
2023/08/21 01:59:16;;;;;;;897.35;811.47;;;29.30;99.90;;;;;;5093853;28;20509;-70
2023/08/21 02:01:42;;;;;;;784.92;709.58;;;29.30;99.90;;;;;;5090496;28;20028;-70
2023/08/21 02:04:09;;;;;;;768.05;695.20;;;29.40;99.90;;;;;;5082381;28;20106;-68
2023/08/21 02:06:36;;;;;;;815.28;737.00;;;29.40;99.90;;;;;;5073728;28;20554;-68
2023/08/21 02:09:02;;;;;;;1065.95;962.97;;;29.40;99.90;;;;;;5073154;28;20500;-68
2023/08/21 02:11:29;;;;;;;1017.05;917.58;;;29.50;99.90;;;;;;5073444;28;20477;-68
2023/08/21 02:13:55;;;;;;;1071.90;968.28;;;29.40;99.90;;;;;;5073427;28;20034;-68
2023/08/21 02:16:22;;;;;;;943.92;852.30;;;29.40;99.90;;;;;;5073430;28;20371;-68
2023/08/21 02:18:48;;;;;;;950.60;858.35;;;29.50;99.90;;;;;;5073315;28;20082;-69
2023/08/21 02:21:15;;;;;;;995.50;898.30;;;29.50;99.90;;;;;;5073376;28;20683;-68
2023/08/21 02:23:41;;;;;;;1098.68;988.13;;;29.60;99.90;;;;;;5073402;28;20221;-68
2023/08/21 02:26:08;;;;;;;1102.38;986.92;;;29.70;99.90;;;;;;5073448;28;20016;-68
2023/08/21 02:28:34;;;;;;;1013.33;908.78;;;29.60;99.90;;;;;;5073465;28;20220;-69
2023/08/21 02:31:01;;;;;;;1334.38;967.90;;;29.60;99.90;;;;;;5073410;28;20021;-68
2023/08/21 02:33:27;;;;;;;1392.20;948.75;;;29.70;99.90;;;;;;5073296;28;20017;-67
2023/08/21 02:35:54;;;;;;;1311.65;913.10;;;29.70;99.90;;;;;;5073153;28;20069;-67
2023/08/21 02:38:20;;;;;;;1217.57;989.00;;;29.80;99.90;;;;;;5073359;28;20050;-68
2023/08/21 02:40:47;;;;;;;915.55;772.10;;;29.90;99.90;;;;;;5073484;28;20024;-68
2023/08/21 02:43:14;;;;;;;854.90;769.45;;;29.90;99.90;;;;;;5073268;28;20028;-69
2023/08/21 02:45:40;;;;;;;761.90;686.95;;;30.00;99.90;;;;;;5073171;28;20028;-69
2023/08/21 02:48:07;;;;;;;874.83;788.00;;;30.10;99.90;;;;;;5073116;28;20017;-68
2023/08/21 02:50:34;;;;;;;624.20;560.72;;;30.20;99.90;;;;;;5072943;28;20044;-69
2023/08/21 02:53:00;;;;;;;735.20;662.30;;;30.20;99.90;;;;;;5073220;28;20108;-69
2023/08/21 02:55:27;;;;;;;733.35;662.97;;;30.20;99.90;;;;;;5073238;28;20029;-69
2023/08/21 02:57:53;;;;;;;814.10;733.90;;;30.20;99.90;;;;;;5072859;28;20033;-67
2023/08/21 03:00:20;;;;;;;797.40;720.38;;;30.30;99.90;;;;;;5072951;28;20028;-70
2023/08/21 03:02:46;;;;;;;950.47;856.92;;;30.40;99.90;;;;;;5072902;28;20052;-70
2023/08/21 03:05:14;;;;;;;941.53;848.30;;;30.40;99.90;;;;;;5072828;28;20028;-69
2023/08/21 03:07:40;;;;;;;851.47;768.35;;;30.40;99.90;;;;;;5072961;28;20100;-68
2023/08/21 03:10:08;;;;;;;893.80;807.17;;;30.30;99.90;;;;;;5073000;28;20377;-69
2023/08/21 03:12:34;;;;;;;894.65;807.08;;;30.40;99.90;;;;;;5072811;28;20066;-69
2023/08/21 03:15:01;;;;;;;884.45;797.85;;;30.50;99.90;;;;;;5072816;28;20469;-68
2023/08/21 03:17:27;;;;;;;807.63;729.88;;;30.50;99.90;;;;;;5072745;28;20428;-69
2023/08/21 03:19:54;;;;;;;843.45;760.90;;;30.50;99.90;;;;;;5072739;28;20413;-69
2023/08/21 03:22:21;;;;;;;1193.70;999.90;;;30.50;99.90;;;;;;5076323;28;20044;-68
2023/08/21 03:24:47;;;;;;;1045.60;943.90;;;30.60;99.90;;;;;;5076605;28;20501;-68
2023/08/21 03:27:17;;;;;;;1036.43;935.20;;;30.70;99.90;;;;;;5076692;28;20373;-68
2023/08/21 03:29:54;;;;;;;836.78;757.03;;;30.70;99.90;;;;;;5076468;28;20461;-69
2023/08/21 03:32:20;;;;;;;900.13;813.15;;;30.70;99.90;;;;;;5076530;28;20158;-68
2023/08/21 03:34:47;;;;;;;981.92;886.72;;;30.70;99.90;;;;;;5076268;28;20017;-67
2023/08/21 03:37:13;;;;;;;984.80;889.33;;;30.80;99.90;;;;;;5076504;28;20097;-68
2023/08/21 03:39:40;;;;;;;1014.40;915.67;;;30.80;99.90;;;;;;5076367;28;20024;-69
2023/08/21 03:42:07;;;;;;;1052.22;950.22;;;30.90;99.90;;;;;;5076070;28;20031;-68
2023/08/21 03:44:33;;;;;;;952.67;860.30;;;30.90;99.90;;;;;;5076383;28;20385;-68
2023/08/21 03:47:00;;;;;;;957.45;863.97;;;31.00;99.90;;;;;;5076143;28;20385;-68
2023/08/21 03:49:26;;;;;;;1059.53;956.60;;;30.90;99.90;;;;;;5076281;28;20035;-70
2023/08/21 03:51:53;;;;;;;1001.25;904.55;;;30.90;99.90;;;;;;5076211;28;20130;-68
2023/08/21 03:54:19;;;;;;;906.17;818.97;;;30.90;99.90;;;;;;5076172;28;20013;-69
2023/08/21 03:56:46;;;;;;;870.30;787.17;;;30.80;99.90;;;;;;5075825;28;20050;-68
2023/08/21 03:59:12;;;;;;;876.20;792.17;;;30.80;99.90;;;;;;5075785;28;20097;-68
2023/08/21 04:01:39;;;;;;;835.40;755.63;;;31.00;99.90;;;;;;5075886;28;20021;-68
2023/08/21 04:04:05;;;;;;;842.75;761.08;;;31.10;99.90;;;;;;5075601;28;20442;-68
2023/08/21 04:06:32;;;;;;;791.33;714.30;;;31.20;99.90;;;;;;5075961;28;20481;-68
2023/08/21 04:08:59;;;;;;;856.22;774.55;;;31.30;99.90;;;;;;5075760;28;20108;-69
2023/08/21 04:11:25;;;;;;;809.50;732.05;;;31.40;99.90;;;;;;5075627;28;20073;-69
2023/08/21 04:13:52;;;;;;;728.05;658.70;;;31.40;99.90;;;;;;5078038;28;20035;-69
2023/08/21 04:16:21;;;;;;;751.80;679.55;;;31.30;99.90;;;;;;5075704;28;20111;-69
2023/08/21 04:18:47;;;;;;;782.58;708.17;;;31.30;99.90;;;;;;5075506;28;20124;-72
2023/08/21 04:21:14;;;;;;;927.20;838.13;;;31.20;99.90;;;;;;5091084;28;20067;-69
2023/08/21 04:23:40;;;;;;;806.13;727.00;;;31.20;99.90;;;;;;5080033;28;20086;-72
2023/08/21 04:26:07;;;;;;;448.58;402.42;;;31.20;99.90;;;;;;5075488;28;20023;-74
2023/08/21 04:28:34;;;;;;;526.95;474.45;;;31.10;99.90;;;;;;5075284;28;20043;-73
2023/08/21 04:31:01;;;;;;;499.50;448.55;;;31.10;99.90;;;;;;5075093;28;20103;-71
2023/08/21 04:33:29;;;;;;;482.90;433.38;;;31.10;99.90;;;;;;5075392;28;20412;-70
2023/08/21 04:35:55;;;;;;;530.30;477.05;;;31.20;99.90;;;;;;5075191;28;20016;-69
2023/08/21 04:38:22;;;;;;;1001.70;904.30;;;31.20;99.90;;;;;;5075225;28;20376;-70
2023/08/21 04:40:49;;;;;;;936.83;845.88;;;31.40;99.90;;;;;;5075179;28;20035;-70
2023/08/21 04:43:15;;;;;;;933.28;841.85;;;31.40;99.90;;;;;;5075041;28;20439;-73
2023/08/21 04:45:54;;;;;;;722.88;651.90;;;31.40;99.90;;;;;;5075348;28;20033;-71
2023/08/21 04:48:21;;;;;;;1071.80;966.53;;;31.40;99.90;;;;;;5075133;28;20023;-72
2023/08/21 04:50:47;;;;;;;982.50;886.53;;;31.50;99.90;;;;;;5075224;28;20036;-71
2023/08/21 04:53:14;;;;;;;1010.40;912.33;;;31.50;99.90;;;;;;5074950;28;20024;-71
2023/08/21 04:55:41;;;;;;;1047.93;944.78;;;31.60;99.90;;;;;;5074755;28;20016;-72
2023/08/21 04:58:09;;;;;;;1094.45;988.22;;;31.70;99.90;;;;;;5074766;28;20477;-71
2023/08/21 05:00:36;;;;;;;1106.10;997.70;;;31.80;99.90;;;;;;5074718;28;20039;-76
2023/08/21 05:03:03;;;;;;;942.83;851.83;;;31.90;99.90;;;;;;5074609;28;20025;-75
2023/08/21 05:05:29;;;;;;;1009.90;912.75;;;31.90;99.90;;;;;;5074844;28;20013;-75
2023/08/21 05:07:56;;;;;;;963.47;870.40;;;31.90;99.90;;;;;;5074663;28;20056;-73
2023/08/21 05:10:22;;;;;;;853.45;771.13;;;31.90;99.90;;;;;;5074479;28;20024;-77
2023/08/21 05:12:49;;;;;;;970.55;876.85;;;32.00;99.90;;;;;;5074420;28;20175;-74
2023/08/21 05:15:16;;;;;;;883.10;797.40;;;32.00;99.90;;;;;;5074448;28;20021;-73
2023/08/21 05:17:43;;;;;;;515.03;462.80;;;32.10;99.90;;;;;;5074438;28;20427;-71
2023/08/21 05:20:13;;;;;;;493.42;443.38;;;32.30;99.90;;;;;;5074543;28;20537;-67
2023/08/21 05:22:40;;;;;;;535.25;481.23;;;32.50;99.90;;;;;;5074264;28;20036;-67
2023/08/21 05:25:07;;;;;;;456.65;409.90;;;32.60;99.90;;;;;;5074128;28;20104;-70
2023/08/21 05:27:34;;;;;;;407.30;366.10;;;32.70;99.90;;;;;;5074333;28;20020;-69
2023/08/21 05:30:00;;;;;;;445.58;399.70;;;32.70;99.90;;;;;;5074427;28;20062;-70
2023/08/21 05:32:27;;;;;;;349.25;315.38;;;32.80;99.90;;;;;;5074115;28;20493;-71
2023/08/21 05:34:53;;;;;;;342.42;309.98;;;32.90;99.90;;;;;;5074066;28;20032;-70
2023/08/21 05:37:20;;;;;;;363.10;326.70;;;32.90;99.90;;;;;;5074204;28;20060;-68
2023/08/21 05:39:48;;;;;;;539.95;487.58;;;32.90;99.90;;;;;;5074120;28;20039;-70
2023/08/21 05:42:15;;;;;;;877.15;788.42;;;33.10;99.90;;;;;;5073814;28;20024;-69
2023/08/21 06:34:47;;;;;;;702.17;633.78;;;31.10;99.90;;;;;;5110638;27;20412;-70
2023/08/21 06:37:14;;;;;;;784.55;708.25;;;31.10;99.90;;;;;;5110694;28;20109;-72
2023/08/21 06:39:41;;;;;;;750.70;678.05;;;31.00;99.90;;;;;;5111073;28;20038;-71
2023/08/21 06:42:07;;;;;;;550.25;494.70;;;31.00;99.90;;;;;;5111222;28;20027;-71
2023/08/21 06:44:34;;;;;;;341.55;309.30;;;31.10;99.90;;;;;;5110969;28;20461;-70
2023/08/21 06:47:01;;;;;;;263.85;239.60;;;31.20;99.90;;;;;;5110926;28;20099;-70
2023/08/21 06:49:27;;;;;;;260.85;237.13;;;31.30;99.90;;;;;;5110626;28;20484;-70
2023/08/21 06:51:54;;;;;;;201.52;183.82;;;31.40;99.90;;;;;;5110811;28;20114;-72
2023/08/21 06:54:20;;;;;;;329.63;298.02;;;31.40;99.90;;;;;;5110607;28;20024;-69
2023/08/21 06:56:47;;;;;;;210.25;191.07;;;31.40;99.90;;;;;;5110404;28;20123;-72
2023/08/21 06:59:15;;;;;;;158.65;143.15;;;31.30;99.90;;;;;;5110660;28;20085;-73
2023/08/21 07:01:41;;;;;;;164.27;146.80;;;31.10;99.90;;;;;;5110649;28;20024;-69
2023/08/21 07:04:08;;;;;;;165.30;149.65;;;30.40;99.90;;;;;;5110072;28;20016;-68
2023/08/21 07:06:34;;;;;;;144.48;131.98;;;29.40;99.90;;;;;;5110662;28;20028;-66
2023/08/21 07:09:02;;;;;;;158.43;144.98;;;28.40;99.90;;;;;;5110359;28;20020;-67
2023/08/21 07:11:29;;;;;;;156.82;143.15;;;27.60;99.90;;;;;;5110110;28;20180;-68
2023/08/21 07:13:55;;;;;;;121.75;111.47;;;27.60;99.90;;;;;;5110237;28;20497;-68
2023/08/21 07:16:22;;;;;;;127.05;116.32;;;27.80;99.90;;;;;;5110212;28;20157;-66
2023/08/21 07:18:49;;;;;;;103.80;95.05;;;27.90;99.90;;;;;;5109409;28;20019;-66
2023/08/21 07:21:16;;;;;;;110.10;101.00;;;28.10;99.90;;;;;;5098317;28;20026;-64
2023/08/21 07:23:42;;;;;;;93.25;85.55;;;28.20;99.90;;;;;;5110273;28;20023;-65
2023/08/21 07:26:09;;;;;;;90.40;82.95;;;28.30;99.90;;;;;;5110042;28;20032;-70
2023/08/21 07:28:35;;;;;;;77.00;70.45;;;28.50;99.90;;;;;;5109996;28;20028;-67
2023/08/21 07:31:02;;;;;;;95.10;86.93;;;28.70;99.90;;;;;;5110189;28;20024;-70
2023/08/21 07:33:29;;;;;;;57.83;52.75;;;28.80;99.90;;;;;;5109847;28;20036;-67
2023/08/21 07:36:00;;;;;;;120.43;110.85;;;28.90;99.90;;;;;;5109973;28;20022;-67
2023/08/21 07:38:27;;;;;;;118.72;109.43;;;29.20;99.90;;;;;;5110089;28;20046;-69
2023/08/21 07:41:12;;;;;;;118.45;109.35;;;29.20;99.90;;;;;;5109825;28;20077;-66
2023/08/21 07:43:42;;;;;;;118.30;108.90;;;29.20;99.90;;;;;;5109902;28;20103;-69
2023/08/21 07:46:21;;;;;;;122.93;112.55;;;29.30;99.90;;;;;;5095504;28;20028;-68
2023/08/21 07:48:48;;;;;;;112.03;102.78;;;29.60;99.90;;;;;;5096221;28;20020;-70
2023/08/21 07:51:14;;;;;;;95.13;87.15;;;29.70;99.90;;;;;;5096112;28;20077;-70
2023/08/21 07:53:41;;;;;;;102.05;93.05;;;29.90;99.90;;;;;;5095783;28;20036;-68
2023/08/21 07:56:07;;;;;;;146.60;133.10;;;30.00;99.90;;;;;;5096087;28;20016;-65
2023/08/21 07:58:34;;;;;;;131.85;120.85;;;30.10;99.90;;;;;;5095820;28;20032;-68
2023/08/21 08:01:01;;;;;;;133.20;122.63;;;30.30;99.90;;;;;;5095805;28;20022;-67
2023/08/21 08:03:27;;;;;;;160.55;146.93;;;30.40;99.90;;;;;;5095798;28;20035;-70
2023/08/21 08:05:54;;;;;;;157.63;144.18;;;30.50;99.90;;;;;;5095775;28;20112;-69
2023/08/21 08:08:20;;;;;;;140.68;128.43;;;30.70;99.90;;;;;;5095566;28;20024;-66
2023/08/21 08:10:47;;;;;;;203.68;185.65;;;30.70;99.90;;;;;;5095658;28;20024;-67
2023/08/21 08:13:14;;;;;;;188.00;171.35;;;30.80;99.90;;;;;;5095603;28;20510;-70
2023/08/21 08:15:40;;;;;;;208.13;189.38;;;30.90;99.90;;;;;;5095405;28;20024;-66
2023/08/21 08:18:12;;;;;;;154.50;140.93;;;30.90;99.90;;;;;;5095339;28;20028;-67
2023/08/21 08:20:39;;;;;;;152.13;138.90;;;31.00;99.90;;;;;;5095564;28;20074;-70
2023/08/21 08:23:05;;;;;;;171.50;155.38;;;31.00;99.90;;;;;;5095450;28;20024;-66
2023/08/21 08:25:33;;;;;;;171.35;156.23;;;31.10;99.90;;;;;;5095384;28;20444;-67
2023/08/21 08:27:59;;;;;;;152.90;139.52;;;31.20;99.90;;;;;;5095586;28;20027;-70
2023/08/21 08:30:26;;;;;;;170.65;155.52;;;31.20;99.90;;;;;;5095139;28;20024;-68
2023/08/21 08:32:52;;;;;;;161.25;147.25;;;31.20;99.90;;;;;;5095185;28;20040;-69
2023/08/21 08:35:19;;;;;;;173.07;158.25;;;31.30;99.90;;;;;;5095371;28;20016;-70
2023/08/21 08:37:45;;;;;;;149.32;136.48;;;31.40;99.90;;;;;;5088469;28;20028;-69
2023/08/21 08:40:12;;;;;;;123.40;112.72;;;31.40;99.90;;;;;;5081062;28;20016;-70
2023/08/21 08:42:39;;;;;;;161.82;147.77;;;31.40;99.90;;;;;;5074922;28;20069;-69
2023/08/21 08:45:06;;;;;;;133.07;121.80;;;31.40;99.90;;;;;;5074719;28;20016;-69
2023/08/21 08:47:35;;;;;;;108.18;98.47;;;31.40;99.90;;;;;;5074746;28;20044;-69
2023/08/21 08:50:05;;;;;;;144.48;132.02;;;31.40;99.90;;;;;;5074701;28;20024;-67
2023/08/21 08:52:35;;;;;;;131.93;120.53;;;31.50;99.90;;;;;;5074479;28;20390;-66
2023/08/21 08:55:03;;;;;;;120.95;110.45;;;31.50;99.90;;;;;;5074690;28;20020;-67
2023/08/21 08:57:30;;;;;;;136.00;123.50;;;31.50;99.90;;;;;;5073823;28;20027;-67
2023/08/21 08:59:57;;;;;;;148.07;134.52;;;31.40;99.90;;;;;;5074625;28;20021;-67
2023/08/21 09:02:27;;;;;;;106.50;97.10;;;31.40;99.90;;;;;;5074562;28;20036;-66
2023/08/21 09:04:54;;;;;;;106.72;97.43;;;31.50;99.90;;;;;;5074465;28;20028;-64
2023/08/21 09:07:21;;;;;;;115.35;105.07;;;31.40;99.90;;;;;;5074361;28;20020;-66
2023/08/21 09:09:50;;;;;;;114.15;104.13;;;31.50;99.90;;;;;;5074248;28;20078;-67
2023/08/21 09:12:17;;;;;;;129.93;117.70;;;31.50;99.90;;;;;;5074527;28;20029;-64
2023/08/21 09:14:45;;;;;;;125.13;113.85;;;31.50;99.90;;;;;;5074192;28;20028;-65
2023/08/21 09:17:12;;;;;;;138.20;125.78;;;31.50;99.90;;;;;;5074226;28;20078;-67
2023/08/21 09:19:38;;;;;;;164.35;148.23;;;31.50;99.90;;;;;;5074266;28;20100;-65
2023/08/21 09:22:25;;;;;;;134.57;121.50;;;31.50;99.90;;;;;;5073985;28;20461;-68
2023/08/21 09:25:06;;;;;;;142.40;129.30;;;31.40;99.90;;;;;;5073987;28;20406;-67
2023/08/21 09:27:34;;;;;;;139.50;127.25;;;31.40;99.90;;;;;;5074042;28;20059;-68
2023/08/21 09:30:18;;;;;;;158.95;145.05;;;31.40;99.90;;;;;;5080369;28;20118;-70
2023/08/21 09:32:55;;;;;;;97.20;88.43;;;31.30;99.90;;;;;;5077080;28;20533;-68
2023/08/21 09:35:23;;;;;;;96.70;88.32;;;31.30;99.90;;;;;;5073812;28;20502;-67
2023/08/21 09:37:52;;;;;;;101.85;93.53;;;31.30;99.90;;;;;;5073715;28;20020;-69
2023/08/21 09:40:21;;;;;;;108.07;98.95;;;31.20;99.90;;;;;;5073612;28;20021;-67
2023/08/21 09:42:53;;;;;;;61.15;55.45;;;31.20;99.90;;;;;;5076086;28;20036;-68
2023/08/21 09:45:25;;;;;;;62.50;56.15;;;31.20;99.90;;;;;;5092214;28;20385;-66
2023/08/21 09:47:53;;;;;;;75.10;68.22;;;31.20;99.90;;;;;;5091360;28;20016;-68
2023/08/21 09:50:22;;;;;;;72.57;65.70;;;31.10;99.90;;;;;;5093255;28;20012;-66
2023/08/21 09:52:48;;;;;;;77.82;70.10;;;31.10;99.90;;;;;;5090685;28;20030;-69
2023/08/21 09:55:15;;;;;;;84.28;76.70;;;31.00;99.90;;;;;;5093131;28;20019;-66
2023/08/21 09:57:42;;;;;;;72.75;65.38;;;31.00;99.90;;;;;;5093742;28;20099;-68
2023/08/21 10:00:21;;;;;;;79.78;72.80;;;31.00;99.90;;;;;;5093878;28;20368;-68
2023/08/21 10:02:51;;;;;;;91.20;83.03;;;31.00;99.90;;;;;;5093678;28;20024;-69
2023/08/21 10:05:18;;;;;;;95.60;86.82;;;31.00;99.90;;;;;;5093434;28;20031;-69
2023/08/21 10:07:47;;;;;;;98.90;89.82;;;30.90;99.90;;;;;;5091013;28;20399;-68
2023/08/21 10:10:14;;;;;;;79.65;72.30;;;30.90;99.90;;;;;;5090333;28;20064;-68
2023/08/21 10:12:40;;;;;;;72.88;65.50;;;30.90;99.90;;;;;;5092971;28;20028;-68
2023/08/21 10:15:10;;;;;;;75.18;67.47;;;30.90;99.90;;;;;;5093359;28;20476;-68
2023/08/21 10:17:39;;;;;;;57.88;51.90;;;30.90;99.90;;;;;;5082987;28;20044;-68
2023/08/21 10:20:07;;;;;;;70.72;63.75;;;30.90;99.90;;;;;;5075360;28;20095;-68
2023/08/21 10:22:44;;;;;;;85.03;77.55;;;30.70;99.90;;;;;;5093371;28;20028;-69
2023/08/21 10:25:30;;;;;;;75.13;68.25;;;30.40;99.90;;;;;;5086320;28;20017;-66
2023/08/21 10:27:59;;;;;;;55.45;49.83;;;30.10;99.90;;;;;;5093312;28;20020;-66
2023/08/21 10:30:28;;;;;;;53.03;47.95;;;29.90;99.90;;;;;;5092951;28;20027;-67
2023/08/21 10:32:56;;;;;;;46.42;41.97;;;29.70;99.90;;;;;;5093090;28;20044;-67
2023/08/21 10:35:28;;;;;;;48.05;43.47;;;29.60;99.90;;;;;;5093384;28;20099;-66
2023/08/21 10:38:16;;;;;;;55.88;50.38;;;29.50;99.90;;;;;;5093049;28;20077;-69
2023/08/21 10:41:04;;;;;;;64.75;59.47;;;29.30;99.90;;;;;;5093039;28;20488;-73
2023/08/21 10:43:40;;;;;;;64.55;58.53;;;29.10;99.90;;;;;;5092881;28;20549;-67
2023/08/21 10:46:08;;;;;;;54.00;49.45;;;28.90;99.90;;;;;;5092993;28;20485;-69
2023/08/21 10:48:36;;;;;;;61.85;56.03;;;28.90;99.90;;;;;;5093227;28;20388;-67
2023/08/21 10:51:05;;;;;;;56.03;49.58;;;28.80;99.90;;;;;;5093302;28;20141;-66
2023/08/21 10:53:33;;;;;;;65.07;58.47;;;28.70;99.90;;;;;;5092773;28;20461;-67
2023/08/21 10:56:08;;;;;;;59.40;49.30;;;28.70;99.90;;;;;;5093341;28;20056;-67
2023/08/21 10:58:42;;;;;;;74.95;54.70;;;28.80;99.90;;;;;;5093290;28;20557;-67
2023/08/21 11:01:08;;;;;;;52.13;46.90;;;28.70;99.90;;;;;;5092962;28;20093;-67
2023/08/21 11:03:39;;;;;;;52.72;47.28;;;28.50;99.90;;;;;;5092884;28;20035;-68
2023/08/21 11:06:08;;;;;;;48.88;43.78;;;28.50;99.90;;;;;;5092961;28;20040;-66
2023/08/21 11:08:36;;;;;;;34.75;30.08;;;28.40;99.90;;;;;;5092284;28;20043;-66
2023/08/21 11:11:05;;;;;;;38.50;30.60;;;28.50;99.90;;;;;;5092040;28;20109;-66
2023/08/21 11:13:32;;;;;;;30.20;27.13;;;28.50;99.90;;;;;;5092392;28;20032;-66
2023/08/21 11:16:05;;;;;;;29.30;22.60;;;28.40;99.90;;;;;;5091933;28;20020;-66
2023/08/21 11:18:33;;;;;;;32.28;28.98;;;28.50;99.90;;;;;;5092343;28;20027;-67
2023/08/21 11:21:11;;;;;;;32.20;21.55;;;28.50;99.90;;;;;;5094719;28;20016;-67
2023/08/21 11:23:41;;;;;;;27.65;22.00;;;28.60;99.90;;;;;;5095971;28;20036;-67
2023/08/21 11:26:11;;;;;;;35.53;23.52;;;28.50;99.90;;;;;;5095587;28;20024;-67
2023/08/21 11:28:39;;;;;;;36.75;24.95;;;28.60;99.90;;;;;;5095665;28;20046;-68
2023/08/21 11:31:06;;;;;;;31.00;21.40;;;28.50;99.90;;;;;;5095541;28;20070;-66
2023/08/21 11:33:33;;;;;;;50.58;32.10;;;28.50;99.90;;;;;;5085670;28;20446;-67
2023/08/21 11:36:00;;;;;;;50.25;35.67;;;28.50;99.90;;;;;;5088550;28;20477;-67
2023/08/21 11:38:28;;;;;;;77.10;59.70;;;28.60;99.90;;;;;;5090482;28;20025;-67
2023/08/21 11:40:56;;;;;;;69.45;56.58;;;28.50;99.90;;;;;;5094002;28;20063;-65
2023/08/21 11:43:44;;;;;;;72.43;57.17;;;28.50;99.90;;;;;;5084194;28;20035;-68
2023/08/21 11:48:43;;;;;;;108.68;74.47;;;28.60;99.90;;;;;;5073734;28;20037;-67
2023/08/21 11:51:10;;;;;;;76.03;53.67;;;28.60;99.90;;;;;;5075608;28;20103;-68
2023/08/21 11:53:40;;;;;;;60.13;53.75;;;28.60;99.90;;;;;;5075405;28;20032;-68
2023/08/21 11:56:17;;;;;;;137.48;100.47;;;28.60;99.90;;;;;;5075570;28;20028;-67
2023/08/21 11:58:46;;;;;;;87.32;66.82;;;28.60;99.90;;;;;;5075368;28;20023;-67
2023/08/21 12:01:21;;;;;;;55.90;36.50;;;28.70;99.90;;;;;;5075333;28;20028;-68
2023/08/21 12:03:56;;;;;;;76.60;53.30;;;28.70;99.90;;;;;;5074933;28;20035;-68
2023/08/21 12:06:25;;;;;;;79.35;49.35;;;28.70;99.90;;;;;;5075244;28;20106;-68
2023/08/21 12:08:51;;;;;;;70.90;47.72;;;28.60;99.90;;;;;;5075337;28;20775;-66
2023/08/21 12:11:18;;;;;;;70.55;44.38;;;28.50;99.90;;;;;;5074977;28;20039;-67
2023/08/21 12:13:45;;;;;;;77.32;51.90;;;28.50;99.90;;;;;;5075058;28;20086;-67
2023/08/21 12:16:11;;;;;;;82.00;51.03;;;28.40;99.90;;;;;;5068478;28;20029;-68
2023/08/21 12:18:38;;;;;;;99.97;60.10;;;28.50;99.90;;;;;;5059291;28;20448;-67
2023/08/21 12:21:04;;;;;;;142.50;85.32;;;28.50;99.90;;;;;;5054200;28;20074;-67
2023/08/21 12:23:31;;;;;;;115.90;69.05;;;28.50;99.90;;;;;;5054885;28;20032;-66
2023/08/21 12:25:57;;;;;;;104.40;59.05;;;28.60;99.90;;;;;;5054834;28;20029;-66
2023/08/21 12:28:24;;;;;;;109.88;62.50;;;28.60;99.90;;;;;;5054577;28;20032;-70
2023/08/21 12:30:50;;;;;;;116.30;60.63;;;28.60;99.90;;;;;;5054226;28;20025;-66
2023/08/21 12:33:17;;;;;;;97.10;55.28;;;28.50;99.90;;;;;;5054463;28;20025;-66
2023/08/21 12:35:43;;;;;;;89.97;53.20;;;28.50;99.90;;;;;;5054541;28;20281;-67
2023/08/21 12:38:12;;;;;;;85.22;50.78;;;28.40;99.90;;;;;;5057103;28;20016;-67
2023/08/21 12:40:39;;;;;;;72.70;43.92;;;28.40;99.90;;;;;;5063190;28;20482;-66
2023/08/21 12:43:06;;;;;;;64.18;43.20;;;28.30;99.90;;;;;;5054201;28;20040;-71
2023/08/21 12:45:33;;;;;;;75.75;44.08;;;28.30;99.90;;;;;;5054589;28;20029;-68
2023/08/21 12:47:59;;;;;;;97.90;47.97;;;28.20;99.90;;;;;;5053533;28;20049;-68
2023/08/21 12:50:26;;;;;;;88.18;52.70;;;28.20;99.90;;;;;;5053985;28;20454;-68
2023/08/21 12:52:52;;;;;;;94.97;58.50;;;28.20;99.90;;;;;;5054003;28;20374;-68
2023/08/21 12:55:19;;;;;;;100.03;59.17;;;28.20;99.90;;;;;;5057807;28;20474;-67
2023/08/21 12:57:46;;;;;;;88.75;55.60;;;28.10;99.90;;;;;;5063795;28;20028;-68
2023/08/21 13:00:13;;;;;;;70.13;44.85;;;28.20;99.90;;;;;;5067681;28;20028;-67
2023/08/21 13:02:40;;;;;;;65.13;36.25;;;28.20;99.90;;;;;;5072405;28;20389;-69
2023/08/21 13:05:07;;;;;;;62.83;47.55;;;28.30;99.90;;;;;;5073116;28;20028;-67
2023/08/21 13:07:34;;;;;;;62.17;40.72;;;28.40;99.90;;;;;;5073408;28;20025;-66
2023/08/21 13:10:00;;;;;;;100.60;67.47;;;28.40;99.90;;;;;;5067051;28;20474;-72